createdAt,value
2023-01-26T00:01:19.643Z,21.17
2023-01-26T00:03:46.958Z,20.35
2023-01-26T00:06:16.053Z,22.15
2023-01-26T00:08:51.118Z,24.75
2023-01-26T00:11:32.479Z,25.80
2023-01-26T00:14:00.529Z,22.90
2023-01-26T00:16:27.969Z,19.88
2023-01-26T00:18:54.811Z,23.42
2023-01-26T00:21:23.755Z,24.30
2023-01-26T00:23:51.982Z,24.48
2023-01-26T00:26:24.223Z,26.40
2023-01-26T00:28:51.825Z,19.45
2023-01-26T00:31:21.502Z,17.90
2023-01-26T00:33:48.351Z,20.10
2023-01-26T00:36:15.734Z,22.98
2023-01-26T00:38:43.212Z,24.30
2023-01-26T00:41:30.608Z,25.58
2023-01-26T00:43:57.403Z,28.17
2023-01-26T00:46:24.195Z,26.05
2023-01-26T00:48:51.007Z,22.48
2023-01-26T00:51:17.830Z,27.15
2023-01-26T00:53:44.611Z,34.05
2023-01-26T00:56:14.798Z,32.80
2023-01-26T00:58:42.325Z,36.05
2023-01-26T01:01:09.151Z,35.78
2023-01-26T01:03:35.923Z,38.53
2023-01-26T01:06:03.800Z,39.92
2023-01-26T01:08:30.826Z,37.20
2023-01-26T01:11:08.383Z,43.17
2023-01-26T01:13:35.336Z,38.65
2023-01-26T01:16:06.615Z,35.22
2023-01-26T01:18:33.907Z,34.47
2023-01-26T01:21:02.029Z,34.15
2023-01-26T01:23:29.368Z,30.35
2023-01-26T01:26:00.850Z,32.17
2023-01-26T01:28:27.954Z,27.33
2023-01-26T01:30:54.887Z,26.42
2023-01-26T01:33:23.515Z,28.60
2023-01-26T01:36:01.115Z,26.85
2023-01-26T01:38:28.452Z,26.30
2023-01-26T01:40:55.982Z,26.63
2023-01-26T01:43:23.638Z,30.60
2023-01-26T01:45:52.103Z,29.17
2023-01-26T01:48:40.250Z,26.80
2023-01-26T01:51:14.701Z,33.45
2023-01-26T01:53:44.952Z,33.10
2023-01-26T01:56:21.548Z,32.42
2023-01-26T01:58:53.864Z,36.50
2023-01-26T02:01:20.712Z,33.00
2023-01-26T02:03:50.936Z,39.47
2023-01-26T02:06:23.385Z,39.35
2023-01-26T02:08:53.653Z,42.35
2023-01-26T02:11:28.969Z,46.65
2023-01-26T02:13:57.641Z,45.10
2023-01-26T02:16:24.945Z,48.83
2023-01-26T02:18:52.855Z,50.28
2023-01-26T02:21:22.345Z,47.63
2023-01-26T02:24:35.012Z,46.10
2023-01-26T02:27:02.585Z,55.28
2023-01-26T02:29:30.000Z,56.58
2023-01-26T02:31:56.960Z,55.20
2023-01-26T02:34:25.302Z,59.67
2023-01-26T02:37:01.480Z,59.33
2023-01-26T02:39:41.285Z,69.22
2023-01-26T02:42:26.702Z,73.10
2023-01-26T02:44:53.672Z,66.43
2023-01-26T02:47:20.844Z,76.47
2023-01-26T02:49:50.439Z,76.97
2023-01-26T02:52:22.951Z,79.65
2023-01-26T02:55:16.818Z,79.65
2023-01-26T02:57:44.512Z,76.30
2023-01-26T03:00:32.591Z,85.22
2023-01-26T03:03:01.798Z,87.50
2023-01-26T03:05:30.562Z,83.93
2023-01-26T03:07:57.418Z,83.55
2023-01-26T03:10:30.183Z,87.00
2023-01-26T03:12:57.028Z,92.10
2023-01-26T03:15:42.451Z,87.60
2023-01-26T03:18:34.021Z,97.75
2023-01-26T03:21:28.281Z,100.53
2023-01-26T03:24:13.871Z,104.30
2023-01-26T03:26:59.671Z,136.35
2023-01-26T03:29:27.283Z,122.93
2023-01-26T03:31:59.388Z,147.07
2023-01-26T03:34:26.504Z,157.98
2023-01-26T03:36:53.889Z,155.95
2023-01-26T03:39:39.548Z,166.30
2023-01-26T03:42:25.087Z,164.32
2023-01-26T03:45:10.177Z,145.68
2023-01-26T03:47:57.566Z,156.82
2023-01-26T03:50:43.734Z,172.73
2023-01-26T03:53:40.978Z,167.32
2023-01-26T03:56:18.316Z,138.23
2023-01-26T03:58:48.366Z,134.70
2023-01-26T04:01:21.665Z,149.02
2023-01-26T04:04:11.460Z,147.07
2023-01-26T04:06:59.673Z,126.38
2023-01-26T04:09:26.752Z,108.60
2023-01-26T04:11:53.884Z,117.28
2023-01-26T04:14:48.884Z,118.15
2023-01-26T04:17:36.585Z,103.90
2023-01-26T04:20:22.802Z,96.45
2023-01-26T04:22:51.059Z,101.22
2023-01-26T04:25:20.957Z,94.25
2023-01-26T04:27:47.968Z,97.68
2023-01-26T04:30:16.641Z,91.03
2023-01-26T04:32:44.401Z,103.22
2023-01-26T04:35:11.441Z,95.88
2023-01-26T04:37:38.956Z,95.57
2023-01-26T04:40:07.473Z,95.95
2023-01-26T04:42:36.132Z,98.85
2023-01-26T04:45:04.855Z,107.57
2023-01-26T04:47:32.250Z,97.20
2023-01-26T04:49:59.111Z,108.28
2023-01-26T04:52:26.458Z,86.85
2023-01-26T04:54:53.252Z,93.68
2023-01-26T04:57:24.613Z,83.68
2023-01-26T04:59:52.317Z,91.47
2023-01-26T05:02:20.394Z,83.90
2023-01-26T05:04:47.315Z,80.03
2023-01-26T05:07:15.286Z,86.75
2023-01-26T05:09:43.572Z,87.03
2023-01-26T05:12:37.621Z,71.18
2023-01-26T05:15:30.554Z,78.75
2023-01-26T05:18:23.689Z,83.00
2023-01-26T05:21:04.789Z,82.70
2023-01-26T05:23:41.533Z,77.25
2023-01-26T05:26:31.237Z,76.97
2023-01-26T05:29:02.308Z,75.18
2023-01-26T05:31:29.227Z,78.03
2023-01-26T05:33:56.054Z,70.13
2023-01-26T05:36:24.148Z,70.55
2023-01-26T05:38:51.170Z,86.85
2023-01-26T05:41:21.911Z,79.30
2023-01-26T05:44:17.879Z,84.32
2023-01-26T05:46:49.590Z,86.30
2023-01-26T05:49:16.589Z,91.60
2023-01-26T05:51:43.593Z,87.72
2023-01-26T05:54:10.359Z,82.07
2023-01-26T05:56:37.205Z,80.18
2023-01-26T05:59:05.967Z,86.78
2023-01-26T06:01:33.392Z,87.45
2023-01-26T06:04:03.892Z,80.22
2023-01-26T06:06:54.065Z,77.38
2023-01-26T06:09:24.704Z,82.97
2023-01-26T06:12:18.172Z,86.13
2023-01-26T06:15:14.185Z,88.60
2023-01-26T06:17:44.289Z,86.55
2023-01-26T06:20:14.918Z,94.00
2023-01-26T06:27:36.145Z,85.75
2023-01-26T06:30:11.202Z,82.50
2023-01-26T06:32:38.094Z,79.85
2023-01-26T06:35:06.751Z,70.03
2023-01-26T06:37:33.752Z,64.38
2023-01-26T06:40:00.575Z,69.60
2023-01-26T06:42:27.308Z,53.80
2023-01-26T06:44:54.621Z,56.78
2023-01-26T06:47:22.368Z,58.63
2023-01-26T06:49:50.013Z,62.33
2023-01-26T06:52:30.548Z,60.53
2023-01-26T06:55:03.344Z,66.07
2023-01-26T06:57:47.069Z,69.13
2023-01-26T07:00:34.597Z,76.13
2023-01-26T07:03:13.215Z,82.80
2023-01-26T07:05:40.090Z,90.53
2023-01-26T07:08:08.666Z,94.00
2023-01-26T07:10:36.295Z,89.75
2023-01-26T07:13:06.335Z,88.25
2023-01-26T07:15:33.363Z,81.47
2023-01-26T07:18:00.874Z,86.70
2023-01-26T07:20:28.370Z,84.20
2023-01-26T07:22:55.289Z,85.35
2023-01-26T07:25:22.101Z,80.57
2023-01-26T07:27:48.844Z,82.32
2023-01-26T07:30:15.951Z,88.00
2023-01-26T07:32:42.929Z,79.13
2023-01-26T07:35:09.989Z,81.75
2023-01-26T07:37:36.848Z,72.53
2023-01-26T07:40:04.345Z,74.80
2023-01-26T07:42:31.262Z,73.13
2023-01-26T07:45:08.831Z,69.90
2023-01-26T07:47:36.193Z,62.00
2023-01-26T07:50:03.528Z,58.38
2023-01-26T07:52:30.453Z,65.72
2023-01-26T07:54:57.307Z,61.72
2023-01-26T07:57:24.181Z,63.80
2023-01-26T07:59:50.965Z,59.00
2023-01-26T08:02:18.902Z,50.40
2023-01-26T08:04:49.258Z,54.03
2023-01-26T08:07:16.246Z,61.70
2023-01-26T08:09:43.059Z,56.88
2023-01-26T08:12:09.891Z,57.78
2023-01-26T08:14:46.541Z,55.65
2023-01-26T08:17:13.911Z,64.75
2023-01-26T08:19:40.815Z,66.05
2023-01-26T08:22:07.751Z,66.68
2023-01-26T08:24:34.447Z,68.82
2023-01-26T08:27:01.317Z,67.38
2023-01-26T08:29:28.156Z,62.05
2023-01-26T08:31:55.219Z,57.03
2023-01-26T08:34:22.647Z,65.00
2023-01-26T08:36:49.755Z,64.30
2023-01-26T08:39:16.686Z,67.93
2023-01-26T08:41:43.505Z,75.95
2023-01-26T08:44:11.043Z,77.53
2023-01-26T08:46:37.916Z,72.22
2023-01-26T08:49:04.667Z,69.90
2023-01-26T08:54:44.001Z,70.68
2023-01-26T08:57:12.384Z,74.10
2023-01-26T08:59:39.462Z,76.65
2023-01-26T09:02:06.786Z,76.65
2023-01-26T09:04:34.262Z,73.07
2023-01-26T09:07:01.216Z,68.55
2023-01-26T09:09:28.078Z,68.57
2023-01-26T09:11:57.846Z,69.05
2023-01-26T09:14:24.710Z,74.05
2023-01-26T09:16:51.661Z,68.57
2023-01-26T09:19:19.674Z,70.85
2023-01-26T09:21:46.588Z,70.40
2023-01-26T09:24:13.377Z,75.72
2023-01-26T09:26:40.272Z,77.82
2023-01-26T09:29:08.326Z,71.40
2023-01-26T09:31:35.320Z,77.85
2023-01-26T09:34:02.219Z,72.72
2023-01-26T09:36:29.091Z,75.22
2023-01-26T09:38:57.003Z,79.60
2023-01-26T09:41:46.751Z,70.28
2023-01-26T09:44:40.648Z,64.68
2023-01-26T09:50:00.779Z,67.70
2023-01-26T09:52:29.088Z,66.18
2023-01-26T09:54:59.375Z,64.20
2023-01-26T09:57:44.230Z,70.05
2023-01-26T10:00:22.676Z,85.50
2023-01-26T10:03:17.186Z,67.15
2023-01-26T10:06:00.449Z,66.32
2023-01-26T10:08:45.847Z,68.82
2023-01-26T10:11:20.915Z,66.75
2023-01-26T10:14:01.937Z,65.68
2023-01-26T10:16:29.307Z,64.32
2023-01-26T10:19:03.976Z,63.53
2023-01-26T10:24:03.149Z,67.60
2023-01-26T10:26:34.357Z,58.30
2023-01-26T10:29:01.808Z,59.83
2023-01-26T10:31:34.197Z,61.05
2023-01-26T10:34:15.350Z,61.55
2023-01-26T10:36:45.676Z,55.22
2023-01-26T10:39:17.883Z,61.55
2023-01-26T10:42:05.021Z,67.45
2023-01-26T10:44:36.565Z,61.08
2023-01-26T10:47:16.367Z,72.07
2023-01-26T10:49:44.189Z,63.95
2023-01-26T10:52:22.818Z,62.47
2023-01-26T10:55:09.606Z,62.13
2023-01-26T10:57:40.399Z,63.08
2023-01-26T11:00:25.522Z,57.65
2023-01-26T11:03:35.851Z,57.40
2023-01-26T11:06:18.968Z,61.75
2023-01-26T11:08:45.727Z,55.72
2023-01-26T11:11:27.313Z,60.05
2023-01-26T11:14:16.546Z,61.33
2023-01-26T11:17:14.154Z,58.08
2023-01-26T11:19:47.093Z,59.65
2023-01-26T11:22:22.012Z,54.63
2023-01-26T11:25:10.057Z,60.65
2023-01-26T11:28:06.119Z,54.25
2023-01-26T11:30:44.909Z,56.83
2023-01-26T11:33:16.805Z,58.83
2023-01-26T11:35:56.009Z,58.78
2023-01-26T11:38:40.813Z,57.70
2023-01-26T11:41:22.957Z,59.88
2023-01-26T11:44:36.219Z,60.47
2023-01-26T11:47:18.342Z,56.67
2023-01-26T11:50:18.017Z,50.78
2023-01-26T11:52:53.886Z,53.38
2023-01-26T11:55:44.966Z,52.17
2023-01-26T11:58:14.570Z,51.47
2023-01-26T12:00:52.013Z,59.05
2023-01-26T12:03:28.169Z,53.13
2023-01-26T12:06:04.359Z,53.80
2023-01-26T12:08:39.175Z,51.75
2023-01-26T12:11:22.730Z,55.58
2023-01-26T12:14:20.868Z,55.75
2023-01-26T12:17:15.624Z,55.33
2023-01-26T12:20:21.283Z,51.95
2023-01-26T12:23:02.695Z,50.28
2023-01-26T12:25:37.934Z,55.40
2023-01-26T12:28:27.642Z,54.92
2023-01-26T12:31:28.851Z,53.60
2023-01-26T12:33:56.866Z,49.10
2023-01-26T12:36:54.435Z,48.03
2023-01-26T12:39:31.844Z,52.63
2023-01-26T12:41:58.592Z,49.05
2023-01-26T12:44:41.992Z,50.35
2023-01-26T12:47:16.159Z,48.33
2023-01-26T12:50:06.404Z,50.05
2023-01-26T12:53:00.313Z,52.78
2023-01-26T12:55:32.694Z,45.70
2023-01-26T12:58:06.955Z,50.95
2023-01-26T13:00:36.552Z,53.92
2023-01-26T13:03:17.606Z,52.28
2023-01-26T13:06:03.243Z,52.30
2023-01-26T13:08:33.204Z,53.83
2023-01-26T13:11:08.548Z,48.33
2023-01-26T13:13:56.689Z,49.28
2023-01-26T13:16:26.317Z,50.35
2023-01-26T13:18:54.241Z,50.03
2023-01-26T13:21:44.003Z,61.08
2023-01-26T13:24:22.603Z,53.50
2023-01-26T13:26:52.237Z,51.58
2023-01-26T13:29:28.178Z,51.90
2023-01-26T13:31:55.249Z,55.00
2023-01-26T13:34:53.722Z,53.13
2023-01-26T13:37:36.475Z,50.20
2023-01-26T13:40:15.453Z,46.85
2023-01-26T13:43:00.477Z,49.08
2023-01-26T13:45:46.499Z,47.88
2023-01-26T13:48:24.974Z,45.78
2023-01-26T13:50:52.708Z,48.60
2023-01-26T13:53:50.135Z,47.55
2023-01-26T13:56:30.056Z,52.17
2023-01-26T13:59:07.614Z,49.53
2023-01-26T14:01:40.303Z,40.67
2023-01-26T14:04:15.205Z,50.53
2023-01-26T14:06:46.161Z,48.47
2023-01-26T14:09:15.668Z,49.65
2023-01-26T14:11:43.142Z,47.22
2023-01-26T14:14:27.549Z,44.92
2023-01-26T14:16:57.427Z,46.28
2023-01-26T14:19:24.773Z,50.90
2023-01-26T14:21:56.171Z,50.83
2023-01-26T14:24:39.740Z,51.15
2023-01-26T14:27:20.538Z,47.45
2023-01-26T14:29:47.781Z,51.63
2023-01-26T14:32:17.722Z,49.75
2023-01-26T14:35:01.068Z,48.60
2023-01-26T14:37:29.180Z,50.38
2023-01-26T14:40:22.489Z,51.25
2023-01-26T14:42:53.265Z,49.20
2023-01-26T14:45:28.512Z,50.38
2023-01-26T14:47:56.426Z,53.17
2023-01-26T14:50:29.906Z,49.55
2023-01-26T14:52:57.201Z,44.85
2023-01-26T14:55:29.585Z,49.83
2023-01-26T14:57:57.842Z,55.07
2023-01-26T15:00:25.157Z,46.80
2023-01-26T15:02:54.829Z,51.30
2023-01-26T15:05:24.550Z,49.78
2023-01-26T15:08:03.664Z,43.15
2023-01-26T15:10:55.285Z,44.38
2023-01-26T15:13:23.519Z,48.15
2023-01-26T15:16:05.052Z,45.10
2023-01-26T15:18:33.911Z,45.33
2023-01-26T15:21:09.614Z,44.10
2023-01-26T15:23:42.236Z,48.33
2023-01-26T15:26:26.500Z,41.08
2023-01-26T15:28:55.927Z,43.47
2023-01-26T15:31:29.503Z,46.28
2023-01-26T15:33:58.735Z,41.88
2023-01-26T15:36:35.659Z,42.05
2023-01-26T15:39:04.839Z,45.40
2023-01-26T15:41:31.910Z,49.13
2023-01-26T15:43:59.592Z,44.40
2023-01-26T15:46:26.761Z,51.10
2023-01-26T15:48:53.650Z,47.25
2023-01-26T15:51:20.625Z,43.33
2023-01-26T15:53:47.655Z,45.65
2023-01-26T15:56:16.035Z,45.75
2023-01-26T15:58:43.344Z,45.42
2023-01-26T16:01:15.968Z,46.03
2023-01-26T16:03:43.212Z,45.70
2023-01-26T16:06:20.116Z,44.55
2023-01-26T16:08:47.029Z,43.40
2023-01-26T16:11:14.646Z,46.30
2023-01-26T16:13:46.434Z,47.25
2023-01-26T16:16:17.992Z,46.63
2023-01-26T16:18:45.383Z,45.17
2023-01-26T16:21:24.606Z,46.25
2023-01-26T16:23:51.956Z,47.10
2023-01-26T16:26:19.887Z,48.08
2023-01-26T16:28:47.224Z,42.13
2023-01-26T16:31:20.387Z,42.58
2023-01-26T16:36:16.909Z,43.55
2023-01-26T16:38:44.097Z,43.75
2023-01-26T16:41:29.651Z,44.75
2023-01-26T16:44:01.045Z,44.95
2023-01-26T16:46:29.325Z,45.47
2023-01-26T16:48:56.957Z,43.03
2023-01-26T16:51:27.111Z,41.10
2023-01-26T16:53:54.269Z,40.05
2023-01-26T16:56:22.276Z,44.42
2023-01-26T16:58:49.341Z,38.78
2023-01-26T17:01:28.539Z,39.78
2023-01-26T17:03:56.109Z,44.33
2023-01-26T17:06:23.260Z,41.45
2023-01-26T17:08:50.599Z,43.75
2023-01-26T17:11:27.924Z,40.83
2023-01-26T17:13:56.222Z,45.95
2023-01-26T17:16:26.047Z,39.95
2023-01-26T17:18:53.523Z,42.92
2023-01-26T17:21:21.897Z,43.35
2023-01-26T17:23:51.000Z,43.90
2023-01-26T17:26:19.068Z,46.30
2023-01-26T17:28:47.402Z,46.03
2023-01-26T17:31:17.747Z,46.28
2023-01-26T17:33:46.056Z,47.58
2023-01-26T17:36:14.147Z,45.92
2023-01-26T17:38:41.292Z,48.92
2023-01-26T17:41:10.666Z,44.30
2023-01-26T17:43:37.401Z,49.22
2023-01-26T17:46:10.332Z,44.70
2023-01-26T17:48:37.660Z,51.45
2023-01-26T17:51:09.875Z,48.00
2023-01-26T17:53:40.900Z,54.10
2023-01-26T17:56:10.153Z,51.17
2023-01-26T17:58:37.661Z,54.10
2023-01-26T18:01:07.329Z,53.17
2023-01-26T18:03:34.990Z,51.78
2023-01-26T18:06:01.996Z,75.30
2023-01-26T18:08:28.935Z,58.45
2023-01-26T18:11:00.266Z,55.08
2023-01-26T18:13:27.968Z,55.50
2023-01-26T18:15:55.824Z,55.65
2023-01-26T18:18:27.320Z,49.90
2023-01-26T18:20:54.972Z,54.58
2023-01-26T18:23:23.527Z,52.20
2023-01-26T18:25:50.698Z,52.63
2023-01-26T18:28:17.795Z,51.78
2023-01-26T18:30:44.761Z,50.70
2023-01-26T18:33:11.887Z,51.38
2023-01-26T18:35:38.650Z,53.75
2023-01-26T18:38:05.449Z,52.55
2023-01-26T18:40:32.557Z,52.95
2023-01-26T18:42:59.413Z,54.75
2023-01-26T18:45:26.174Z,58.97
2023-01-26T18:47:52.959Z,57.08
2023-01-26T18:50:19.845Z,59.85
2023-01-26T18:52:46.653Z,52.17
2023-01-26T18:55:13.803Z,51.72
2023-01-26T18:57:40.907Z,57.33
2023-01-26T19:00:09.164Z,53.78
2023-01-26T19:02:38.915Z,53.17
2023-01-26T19:05:07.561Z,55.15
2023-01-26T19:07:35.122Z,55.42
2023-01-26T19:10:02.267Z,51.10
2023-01-26T19:12:30.180Z,51.78
2023-01-26T19:14:57.117Z,51.78
2023-01-26T19:17:23.834Z,55.97
2023-01-26T19:19:50.674Z,52.60
2023-01-26T19:22:17.608Z,47.60
2023-01-26T19:24:44.840Z,48.38
2023-01-26T19:27:11.754Z,53.47
2023-01-26T19:29:38.557Z,56.53
2023-01-26T19:32:05.530Z,49.33
2023-01-26T19:34:33.793Z,52.80
2023-01-26T19:37:00.695Z,51.60
2023-01-26T19:39:27.639Z,47.53
2023-01-26T19:41:54.597Z,56.28
2023-01-26T19:44:21.485Z,52.63
2023-01-26T19:46:51.532Z,50.40
2023-01-26T19:49:20.174Z,56.00
2023-01-26T19:51:47.027Z,57.17
2023-01-26T19:54:14.732Z,56.42
2023-01-26T19:56:41.780Z,58.47
2023-01-26T19:59:11.367Z,67.10
2023-01-26T20:01:39.077Z,55.10
2023-01-26T20:04:09.440Z,56.80
2023-01-26T20:06:37.533Z,55.53
2023-01-26T20:09:05.936Z,55.95
2023-01-26T20:11:34.106Z,50.60
2023-01-26T20:14:03.513Z,49.25
2023-01-26T20:16:31.642Z,50.65
2023-01-26T20:18:59.648Z,52.47
2023-01-26T20:21:27.478Z,45.75
2023-01-26T20:23:56.012Z,50.50
2023-01-26T20:26:24.615Z,49.10
2023-01-26T20:28:52.881Z,44.95
2023-01-26T20:31:22.824Z,48.42
2023-01-26T20:33:53.557Z,45.22
2023-01-26T20:36:24.410Z,45.08
2023-01-26T20:38:51.433Z,48.90
2023-01-26T20:41:22.225Z,47.30
2023-01-26T20:43:59.208Z,50.05
2023-01-26T20:46:29.998Z,51.50
2023-01-26T20:48:57.410Z,43.80
2023-01-26T20:51:30.714Z,45.60
2023-01-26T20:56:25.055Z,47.13
2023-01-26T20:58:55.899Z,50.55
2023-01-26T21:01:23.645Z,55.88
2023-01-26T21:03:50.971Z,54.33
2023-01-26T21:06:19.650Z,50.03
2023-01-26T21:08:48.307Z,52.92
2023-01-26T21:11:17.519Z,46.88
2023-01-26T21:13:45.349Z,46.17
2023-01-26T21:16:15.815Z,50.67
2023-01-26T21:18:43.036Z,50.95
2023-01-26T21:21:13.607Z,47.40
2023-01-26T21:23:40.963Z,50.95
2023-01-26T21:26:12.004Z,48.80
2023-01-26T21:28:39.430Z,49.83
2023-01-26T21:31:14.265Z,47.78
2023-01-26T21:33:44.026Z,49.47
2023-01-26T21:36:14.007Z,50.33
2023-01-26T21:38:43.865Z,49.60
2023-01-26T21:41:41.226Z,52.70
2023-01-26T21:44:11.717Z,51.45
2023-01-26T21:46:41.401Z,50.78
2023-01-26T21:49:13.793Z,53.60
2023-01-26T21:51:59.660Z,50.45
2023-01-26T21:54:26.784Z,50.35
2023-01-26T21:56:53.659Z,49.13
2023-01-26T21:59:20.763Z,51.05
2023-01-26T22:01:50.043Z,47.80
2023-01-26T22:04:20.450Z,50.33
2023-01-26T22:06:47.923Z,58.47
2023-01-26T22:09:16.300Z,54.00
2023-01-26T22:11:43.843Z,55.22
2023-01-26T22:14:15.688Z,53.10
2023-01-26T22:16:42.746Z,51.00
2023-01-26T22:19:10.980Z,49.08
2023-01-26T22:21:38.688Z,54.33
2023-01-26T22:24:06.913Z,49.65
2023-01-26T22:26:34.113Z,52.75
2023-01-26T22:29:00.965Z,62.03
2023-01-26T22:31:29.842Z,52.25
2023-01-26T22:33:58.464Z,52.58
2023-01-26T22:36:26.250Z,52.38
2023-01-26T22:38:53.435Z,52.13
2023-01-26T22:41:23.150Z,46.03
2023-01-26T22:43:51.513Z,52.25
2023-01-26T22:46:19.655Z,47.60
2023-01-26T22:48:46.812Z,46.15
2023-01-26T22:51:22.349Z,45.70
2023-01-26T22:53:50.572Z,45.97
2023-01-26T22:56:17.899Z,44.05
2023-01-26T22:58:57.662Z,41.22
2023-01-26T23:01:26.507Z,44.08
2023-01-26T23:03:54.869Z,40.28
2023-01-26T23:06:22.109Z,42.22
2023-01-26T23:08:49.001Z,36.67
2023-01-26T23:11:21.930Z,40.25
2023-01-26T23:13:49.889Z,38.80
2023-01-26T23:16:17.483Z,37.80
2023-01-26T23:18:44.775Z,37.40
2023-01-26T23:21:11.772Z,33.50
2023-01-26T23:23:40.501Z,35.50
2023-01-26T23:26:08.387Z,31.38
2023-01-26T23:28:40.556Z,31.30
2023-01-26T23:31:07.764Z,27.38
2023-01-26T23:33:35.695Z,28.42
2023-01-26T23:36:03.423Z,23.33
2023-01-26T23:38:31.233Z,26.67
2023-01-26T23:41:00.511Z,24.80
2023-01-26T23:43:27.691Z,22.65
2023-01-26T23:45:56.680Z,18.90
2023-01-26T23:48:24.946Z,20.65
2023-01-26T23:51:00.214Z,22.90
2023-01-26T23:53:28.302Z,22.65
2023-01-26T23:55:55.844Z,24.52
2023-01-26T23:58:22.636Z,22.05
